Time;durP1;ratioP1;P1;durP2;ratioP2;P2;SDS_P1;SDS_P2;PMS_P1;PMS_P2;Temp;Humidity;BMP_temperature;BMP_pressure;BME280_temperature;BME280_humidity;BME280_pressure;Samples;Min_cycle;Max_cycle;Signal;HPM_P1;HPM_P2
2024/01/04 00:03:00;;;;;;;2.20;2.10;;;9.90;99.90;;;;;;10495505;28;20262;-76
2024/01/04 00:08:05;;;;;;;3.63;1.90;;;9.90;99.90;;;;;;10492459;28;20243;-77
2024/01/04 00:13:07;;;;;;;2.07;1.97;;;9.70;99.90;;;;;;10467815;28;20220;-76
2024/01/04 00:18:10;;;;;;;3.00;2.33;;;9.60;99.90;;;;;;10491899;28;20685;-76
2024/01/04 00:23:13;;;;;;;4.70;2.23;;;9.50;99.90;;;;;;10492053;28;20262;-76
2024/01/04 00:28:15;;;;;;;4.00;2.40;;;9.40;99.90;;;;;;10491721;28;20561;-77
2024/01/04 00:33:18;;;;;;;1.93;1.83;;;9.40;99.90;;;;;;10473664;28;20232;-77
2024/01/04 00:38:22;;;;;;;2.13;2.00;;;9.40;99.90;;;;;;10490997;28;20224;-76
2024/01/04 00:43:24;;;;;;;2.20;2.00;;;9.30;99.90;;;;;;10446687;28;20224;-77
2024/01/04 00:48:26;;;;;;;3.40;2.40;;;9.30;99.90;;;;;;10493094;28;20193;-77
2024/01/04 00:53:30;;;;;;;4.27;2.53;;;9.20;99.90;;;;;;10473186;28;20278;-76
2024/01/04 00:58:32;;;;;;;2.50;2.30;;;9.20;99.90;;;;;;10491106;28;20732;-76
2024/01/04 01:03:34;;;;;;;3.70;2.30;;;9.20;99.90;;;;;;10472178;28;20220;-77
2024/01/04 01:08:38;;;;;;;2.57;2.37;;;9.20;99.90;;;;;;10471901;28;20193;-77
2024/01/04 01:13:41;;;;;;;3.20;2.90;;;9.20;99.90;;;;;;10472853;28;20701;-77
2024/01/04 01:18:43;;;;;;;4.73;3.37;;;9.20;99.90;;;;;;10464354;28;20678;-77
2024/01/04 01:23:47;;;;;;;3.60;3.00;;;9.00;99.90;;;;;;10439416;28;20225;-77
2024/01/04 01:28:50;;;;;;;3.30;3.00;;;9.00;99.90;;;;;;10464316;28;20196;-77
2024/01/04 01:33:52;;;;;;;7.30;4.10;;;9.00;99.90;;;;;;10438433;28;20244;-76
2024/01/04 01:38:56;;;;;;;6.70;4.43;;;8.90;99.90;;;;;;10472079;28;20273;-76
2024/01/04 01:43:58;;;;;;;4.70;4.40;;;8.90;99.90;;;;;;10471950;28;20212;-77
2024/01/04 01:49:01;;;;;;;4.63;4.33;;;8.80;99.90;;;;;;10464914;28;20208;-77
2024/01/04 01:54:06;;;;;;;5.23;4.77;;;8.80;99.90;;;;;;10453424;28;20213;-77
2024/01/04 01:59:09;;;;;;;5.53;5.10;;;8.80;99.90;;;;;;10480267;28;20260;-76
2024/01/04 02:04:12;;;;;;;4.57;4.37;;;8.70;99.90;;;;;;10432804;28;20212;-77
2024/01/04 02:09:16;;;;;;;4.43;4.33;;;8.80;99.90;;;;;;10471502;28;20196;-76
2024/01/04 02:14:18;;;;;;;5.10;4.90;;;8.70;99.90;;;;;;10471748;28;20201;-77
2024/01/04 02:19:21;;;;;;;5.40;5.00;;;8.60;99.90;;;;;;10466168;28;20213;-76
2024/01/04 02:24:25;;;;;;;5.33;5.03;;;8.50;99.90;;;;;;10434662;28;20196;-77
2024/01/04 02:29:27;;;;;;;5.50;5.10;;;8.50;99.90;;;;;;10466610;28;20274;-77
2024/01/04 02:34:30;;;;;;;5.40;5.20;;;8.40;99.90;;;;;;10434409;28;20613;-76
2024/01/04 02:39:33;;;;;;;4.70;4.60;;;8.30;99.90;;;;;;10494666;28;20220;-77
2024/01/04 02:44:36;;;;;;;4.77;4.67;;;8.30;99.90;;;;;;10479374;28;20204;-76
2024/01/04 02:49:39;;;;;;;4.83;4.73;;;8.30;99.90;;;;;;10493076;28;20209;-77
2024/01/04 02:54:43;;;;;;;4.50;4.30;;;8.30;99.90;;;;;;10458033;28;20731;-77
2024/01/04 02:59:45;;;;;;;4.60;4.30;;;8.20;99.90;;;;;;10477971;28;20223;-77
2024/01/04 03:04:47;;;;;;;4.10;4.00;;;8.20;99.90;;;;;;10456955;28;20198;-76
2024/01/04 03:09:51;;;;;;;3.80;3.70;;;8.10;99.90;;;;;;10495064;28;20220;-76
2024/01/04 03:14:54;;;;;;;4.40;4.10;;;8.10;99.90;;;;;;10495012;28;20208;-76
2024/01/04 03:19:56;;;;;;;3.90;3.80;;;8.10;99.90;;;;;;10475307;28;20224;-76
2024/01/04 03:25:00;;;;;;;3.17;3.07;;;8.20;99.90;;;;;;10454532;28;20204;-76
2024/01/04 03:30:02;;;;;;;4.70;4.30;;;8.30;99.90;;;;;;10475537;28;20274;-77
2024/01/04 03:35:05;;;;;;;3.60;3.50;;;8.30;99.90;;;;;;10455081;28;20207;-76
2024/01/04 03:40:10;;;;;;;3.27;3.17;;;8.30;99.90;;;;;;10494126;28;20609;-75
2024/01/04 03:45:12;;;;;;;3.03;3.03;;;8.30;99.90;;;;;;10493548;28;20204;-76
2024/01/04 03:50:15;;;;;;;4.20;4.00;;;8.20;99.90;;;;;;10459974;28;20221;-78
2024/01/04 03:55:18;;;;;;;3.60;3.40;;;8.30;99.90;;;;;;10506774;28;20199;-77
2024/01/04 04:00:21;;;;;;;3.17;3.07;;;8.30;99.90;;;;;;10458493;28;20664;-78
2024/01/04 04:05:23;;;;;;;3.77;3.67;;;8.40;99.90;;;;;;10514162;28;20204;-78
2024/01/04 04:10:27;;;;;;;4.00;3.80;;;8.40;99.90;;;;;;10485814;28;20220;-77
2024/01/04 04:15:29;;;;;;;4.10;3.90;;;8.40;99.90;;;;;;10499041;28;20723;-78
2024/01/04 04:20:31;;;;;;;6.43;4.37;;;8.50;99.90;;;;;;10481582;28;20220;-78
2024/01/04 04:25:36;;;;;;;4.17;3.70;;;8.50;99.90;;;;;;10462423;28;20193;-78
2024/01/04 04:30:38;;;;;;;6.53;4.33;;;8.60;99.90;;;;;;10497619;28;20216;-78
2024/01/04 04:35:41;;;;;;;6.43;4.10;;;8.70;99.90;;;;;;10464520;28;20204;-78
2024/01/04 04:40:44;;;;;;;3.87;3.57;;;8.80;99.90;;;;;;10493170;28;20685;-78
2024/01/04 04:45:47;;;;;;;4.80;3.10;;;8.90;99.90;;;;;;10478933;28;20258;-77
2024/01/04 04:50:49;;;;;;;3.90;3.47;;;9.00;99.90;;;;;;10456520;28;20221;-78
2024/01/04 04:55:53;;;;;;;4.07;3.83;;;9.10;99.90;;;;;;10491075;28;20195;-78
2024/01/04 05:00:55;;;;;;;4.37;3.20;;;9.10;99.90;;;;;;10456000;28;20795;-77
2024/01/04 05:05:57;;;;;;;4.20;3.37;;;9.20;99.90;;;;;;10489473;28;20234;-77
2024/01/04 05:11:01;;;;;;;3.23;3.03;;;9.10;99.90;;;;;;10492725;28;20216;-77
2024/01/04 05:16:04;;;;;;;3.30;3.07;;;9.10;99.90;;;;;;10492730;28;20192;-77
2024/01/04 05:21:06;;;;;;;4.23;2.70;;;9.00;99.90;;;;;;10452033;28;20271;-78
2024/01/04 05:26:19;;;;;;;3.37;3.07;;;9.00;99.90;;;;;;10484455;28;20201;-77
2024/01/04 05:31:22;;;;;;;2.90;2.80;;;9.00;99.90;;;;;;10456316;28;20558;-77
2024/01/04 05:36:24;;;;;;;3.83;3.27;;;8.90;99.90;;;;;;10470604;28;20207;-77
2024/01/04 05:41:28;;;;;;;3.00;2.90;;;8.90;99.90;;;;;;10492426;28;20220;-78
2024/01/04 05:46:31;;;;;;;3.73;2.87;;;8.80;99.90;;;;;;10489703;28;20245;-77
2024/01/04 05:51:33;;;;;;;4.33;3.37;;;8.80;99.90;;;;;;10462143;28;20224;-77
2024/01/04 05:56:37;;;;;;;3.67;3.33;;;8.80;99.90;;;;;;10476115;28;20199;-77
2024/01/04 06:01:39;;;;;;;3.73;3.10;;;8.80;99.90;;;;;;10454897;28;20698;-75
2024/01/04 06:06:42;;;;;;;3.17;2.97;;;8.80;99.90;;;;;;10494791;28;20200;-77
2024/01/04 06:11:45;;;;;;;3.03;2.60;;;8.80;99.90;;;;;;10492606;28;20282;-77
2024/01/04 06:16:48;;;;;;;3.13;2.90;;;8.80;99.90;;;;;;10494974;28;20196;-78
2024/01/04 06:21:50;;;;;;;3.03;2.80;;;8.80;99.90;;;;;;10461554;28;20224;-76
2024/01/04 06:26:54;;;;;;;3.23;2.93;;;8.80;99.90;;;;;;10490567;28;20205;-78
2024/01/04 06:31:56;;;;;;;3.60;3.30;;;8.90;99.90;;;;;;10463256;28;20283;-75
2024/01/04 06:36:58;;;;;;;6.73;2.63;;;8.90;99.90;;;;;;10492729;28;20205;-77
2024/01/04 06:42:04;;;;;;;5.70;3.03;;;8.90;99.90;;;;;;10499367;28;20216;-76
2024/01/04 06:47:06;;;;;;;3.37;2.60;;;9.00;99.90;;;;;;10496229;28;20293;-76
2024/01/04 06:52:09;;;;;;;3.90;3.50;;;9.00;99.90;;;;;;10463541;28;20217;-76
2024/01/04 06:57:13;;;;;;;4.30;3.23;;;9.00;99.90;;;;;;10491118;28;20204;-77
2024/01/04 07:02:15;;;;;;;2.50;2.30;;;9.00;99.90;;;;;;10465425;28;20224;-79
2024/01/04 07:07:17;;;;;;;2.07;1.80;;;9.10;99.90;;;;;;10486423;28;20257;-77
2024/01/04 07:12:21;;;;;;;3.70;2.43;;;9.10;99.90;;;;;;10498581;28;20266;-79
2024/01/04 07:17:24;;;;;;;4.00;2.23;;;9.10;99.90;;;;;;10496662;28;20696;-79
2024/01/04 07:22:27;;;;;;;2.70;2.20;;;9.20;99.90;;;;;;10465800;28;20217;-78
2024/01/04 07:27:31;;;;;;;3.13;2.23;;;9.20;99.90;;;;;;10472708;28;20629;-80
2024/01/04 07:32:33;;;;;;;1.90;1.80;;;9.20;99.90;;;;;;10468513;28;20359;-78
2024/01/04 07:37:36;;;;;;;5.90;2.33;;;9.20;99.90;;;;;;10488653;28;20193;-79
2024/01/04 07:42:39;;;;;;;1.53;1.10;;;9.20;99.90;;;;;;10470137;28;20209;-78
2024/01/04 07:47:42;;;;;;;2.83;2.43;;;9.10;99.90;;;;;;10488966;28;20662;-79
2024/01/04 07:52:44;;;;;;;2.40;2.20;;;9.10;99.90;;;;;;10470217;28;20243;-79
2024/01/04 07:57:48;;;;;;;2.70;2.07;;;9.10;99.90;;;;;;10487530;28;20209;-79
2024/01/04 08:02:50;;;;;;;3.67;2.40;;;9.00;99.90;;;;;;10472061;28;20221;-79
2024/01/04 08:07:52;;;;;;;5.60;2.37;;;9.00;99.90;;;;;;10496374;28;20327;-78
2024/01/04 08:12:56;;;;;;;3.07;1.80;;;8.90;99.90;;;;;;10496970;28;20217;-77
2024/01/04 08:17:58;;;;;;;5.13;2.80;;;8.90;99.90;;;;;;10495927;28;20570;-77
2024/01/04 08:23:01;;;;;;;2.50;2.20;;;8.90;99.90;;;;;;10468096;28;20217;-77
2024/01/04 08:28:06;;;;;;;1.90;1.70;;;8.90;99.90;;;;;;10482437;28;20192;-77
2024/01/04 08:33:08;;;;;;;2.33;1.87;;;8.90;99.90;;;;;;10469196;28;20746;-77
2024/01/04 08:38:11;;;;;;;4.63;2.17;;;8.90;99.90;;;;;;10482478;28;20220;-77
2024/01/04 08:43:14;;;;;;;3.90;1.90;;;8.90;99.90;;;;;;10470832;28;20229;-78
2024/01/04 08:48:17;;;;;;;2.30;1.80;;;8.90;99.90;;;;;;10482580;28;20254;-77
2024/01/04 08:53:20;;;;;;;3.13;2.30;;;8.90;99.90;;;;;;10490875;28;20241;-77
2024/01/04 08:58:24;;;;;;;3.23;1.80;;;8.90;99.90;;;;;;10488047;28;20216;-76
2024/01/04 09:03:26;;;;;;;2.10;1.80;;;9.10;99.90;;;;;;10488972;28;20208;-76
2024/01/04 09:08:29;;;;;;;1.77;1.50;;;9.20;99.90;;;;;;10488519;28;20195;-75
2024/01/04 09:13:33;;;;;;;2.73;1.50;;;9.40;99.90;;;;;;10489395;28;20212;-75
2024/01/04 09:18:36;;;;;;;2.10;2.00;;;9.50;99.90;;;;;;10488856;28;20212;-75
2024/01/04 09:23:38;;;;;;;2.23;1.70;;;9.60;99.90;;;;;;10488409;28;20220;-75
2024/01/04 09:28:42;;;;;;;2.73;1.70;;;9.60;99.90;;;;;;10488815;28;20189;-76
2024/01/04 09:33:44;;;;;;;5.27;2.10;;;9.60;99.90;;;;;;10481162;28;20232;-77
2024/01/04 09:38:46;;;;;;;2.87;1.63;;;9.60;99.90;;;;;;10489834;28;20212;-79
2024/01/04 09:43:54;;;;;;;3.10;1.87;;;9.50;99.90;;;;;;10481605;28;20235;-77
2024/01/04 09:48:59;;;;;;;4.30;2.00;;;9.50;99.90;;;;;;10489944;28;20622;-79
2024/01/04 09:54:02;;;;;;;1.60;1.50;;;9.60;99.90;;;;;;10486222;28;20216;-77
2024/01/04 09:59:07;;;;;;;3.40;1.50;;;9.80;99.90;;;;;;10492559;28;20722;-75
2024/01/04 10:04:11;;;;;;;2.63;1.70;;;9.90;99.90;;;;;;10488869;28;20622;-77
2024/01/04 10:09:20;;;;;;;2.60;1.63;;;10.10;99.90;;;;;;10503035;28;20193;-78
2024/01/04 10:14:25;;;;;;;2.07;1.70;;;10.20;99.90;;;;;;10487039;28;20212;-77
2024/01/04 10:19:28;;;;;;;6.03;1.60;;;10.30;99.90;;;;;;10496156;28;20220;-78
2024/01/04 10:24:32;;;;;;;3.10;2.17;;;10.40;99.90;;;;;;10487549;28;20196;-78
2024/01/04 10:29:37;;;;;;;1.80;1.70;;;10.40;99.90;;;;;;10496805;28;20224;-78
2024/01/04 10:34:41;;;;;;;5.23;2.07;;;10.40;99.90;;;;;;10487632;28;20266;-77
2024/01/04 10:39:55;;;;;;;2.60;1.80;;;10.20;99.90;;;;;;10476892;28;20647;-76
2024/01/04 10:44:59;;;;;;;4.73;1.77;;;10.10;99.90;;;;;;10484728;28;20208;-77
2024/01/04 10:50:03;;;;;;;3.57;2.20;;;10.10;99.90;;;;;;10477634;28;20259;-77
2024/01/04 10:55:07;;;;;;;1.93;1.83;;;10.10;99.90;;;;;;10485462;28;20209;-77
2024/01/04 11:00:13;;;;;;;2.87;1.73;;;10.00;99.90;;;;;;10481080;28;20291;-77
2024/01/04 11:05:16;;;;;;;1.87;1.77;;;9.80;99.90;;;;;;10498035;28;20559;-77
2024/01/04 11:10:19;;;;;;;1.50;1.50;;;9.60;99.90;;;;;;10484632;28;20343;-77
2024/01/04 11:15:23;;;;;;;1.53;1.43;;;9.60;99.90;;;;;;10494419;28;20204;-77
2024/01/04 11:20:42;;;;;;;1.70;1.60;;;9.60;99.90;;;;;;10472812;28;20306;-77
2024/01/04 11:26:02;;;;;;;1.80;1.70;;;9.70;99.90;;;;;;10481164;28;20196;-78
2024/01/04 11:31:06;;;;;;;5.13;1.97;;;9.70;99.90;;;;;;10495791;28;20212;-77
2024/01/04 11:36:08;;;;;;;2.53;2.33;;;9.80;99.90;;;;;;10478204;28;20681;-77
2024/01/04 11:41:11;;;;;;;4.80;2.00;;;9.90;99.90;;;;;;10495688;28;20228;-77
2024/01/04 11:46:21;;;;;;;3.60;1.57;;;10.10;99.90;;;;;;10495398;28;20197;-77
2024/01/04 11:51:34;;;;;;;3.67;1.80;;;10.30;99.90;;;;;;10468645;28;20209;-78
2024/01/04 11:56:36;;;;;;;2.37;1.77;;;10.40;99.90;;;;;;10470151;28;20200;-77
2024/01/04 12:01:41;;;;;;;3.13;2.00;;;10.50;99.90;;;;;;10468318;28;20764;-78
2024/01/04 12:06:45;;;;;;;4.70;2.03;;;10.30;99.90;;;;;;10468866;28;20662;-77
2024/01/04 12:11:55;;;;;;;2.57;1.97;;;10.10;99.90;;;;;;10506324;28;20561;-77
2024/01/04 12:16:59;;;;;;;1.90;1.80;;;9.90;99.90;;;;;;10496717;28;20215;-78
2024/01/04 12:22:02;;;;;;;1.97;1.77;;;9.70;99.90;;;;;;10467962;28;20225;-77
2024/01/04 12:27:05;;;;;;;3.33;2.17;;;9.70;99.90;;;;;;10482560;28;20673;-77
2024/01/04 12:32:09;;;;;;;2.10;1.90;;;9.70;99.90;;;;;;10467681;28;20232;-77
2024/01/04 12:37:16;;;;;;;2.57;1.73;;;9.60;99.90;;;;;;10462235;28;20204;-78
2024/01/04 12:42:18;;;;;;;2.87;1.70;;;9.70;99.90;;;;;;10481665;28;20232;-77
2024/01/04 12:47:24;;;;;;;2.70;1.47;;;9.80;99.90;;;;;;10466635;28;21095;-77
2024/01/04 12:52:27;;;;;;;4.17;1.90;;;9.90;99.90;;;;;;10480617;28;20631;-77
2024/01/04 12:57:29;;;;;;;4.13;2.00;;;10.00;99.90;;;;;;10449663;28;20206;-78
2024/01/04 13:02:34;;;;;;;3.00;1.90;;;9.90;99.90;;;;;;10487548;28;20212;-77
2024/01/04 13:07:37;;;;;;;3.10;2.30;;;10.00;99.90;;;;;;10488952;28;20211;-78
2024/01/04 13:12:39;;;;;;;3.03;1.57;;;10.10;99.90;;;;;;10497155;28;20216;-77
2024/01/04 13:17:43;;;;;;;2.60;1.67;;;10.10;99.90;;;;;;10494115;28;20192;-77
2024/01/04 13:22:45;;;;;;;2.50;1.63;;;10.10;99.90;;;;;;10448811;28;20596;-77
2024/01/04 13:27:48;;;;;;;3.00;1.80;;;10.20;99.90;;;;;;10460079;28;20208;-78
2024/01/04 13:32:52;;;;;;;2.53;2.00;;;10.30;99.90;;;;;;10467174;28;20697;-77
2024/01/04 13:37:54;;;;;;;4.50;1.60;;;10.50;99.90;;;;;;10476203;28;20196;-78
2024/01/04 13:42:57;;;;;;;1.97;1.77;;;10.60;99.90;;;;;;10492044;28;20728;-78
2024/01/04 13:48:00;;;;;;;1.97;1.87;;;10.60;99.90;;;;;;10491590;28;20207;-77
2024/01/04 13:53:08;;;;;;;4.17;1.97;;;10.60;99.90;;;;;;10467258;28;20213;-78
2024/01/04 13:58:11;;;;;;;5.23;2.37;;;10.70;99.90;;;;;;10477186;28;20188;-78
2024/01/04 14:03:14;;;;;;;3.10;2.07;;;10.60;99.90;;;;;;10449767;28;20228;-77
2024/01/04 14:08:17;;;;;;;4.53;1.97;;;10.60;99.90;;;;;;10486988;28;20200;-77
2024/01/04 14:13:20;;;;;;;4.87;2.20;;;10.60;99.90;;;;;;10491783;28;20913;-77
2024/01/04 14:18:23;;;;;;;4.93;2.00;;;10.70;99.90;;;;;;10468151;28;20197;-78
2024/01/04 14:23:27;;;;;;;4.27;2.27;;;10.70;99.90;;;;;;10455983;28;20220;-78
2024/01/04 14:28:30;;;;;;;1.53;1.20;;;10.70;99.90;;;;;;10479197;28;20220;-78
2024/01/04 14:33:35;;;;;;;1.80;1.70;;;10.80;99.90;;;;;;10494529;28;20216;-78
2024/01/04 14:38:38;;;;;;;5.00;2.10;;;10.80;99.90;;;;;;10514174;28;20193;-79
2024/01/04 14:43:40;;;;;;;5.53;2.10;;;10.70;99.90;;;;;;10499851;28;20836;-80
2024/01/04 14:48:44;;;;;;;1.77;1.67;;;10.70;99.90;;;;;;10478419;28;20706;-79
2024/01/04 14:53:47;;;;;;;4.03;2.10;;;10.70;99.90;;;;;;10496786;28;20773;-79
2024/01/04 14:58:49;;;;;;;1.80;1.60;;;10.60;99.90;;;;;;10500243;28;20192;-79
2024/01/04 15:03:55;;;;;;;7.37;2.10;;;10.70;99.90;;;;;;10477846;28;20654;-79
2024/01/04 15:08:57;;;;;;;2.20;1.60;;;10.60;99.90;;;;;;10498394;28;20218;-79
2024/01/04 15:14:00;;;;;;;1.77;1.67;;;10.50;99.90;;;;;;10501484;28;20221;-80
2024/01/04 15:19:04;;;;;;;1.73;1.63;;;10.40;99.90;;;;;;10480021;28;20204;-80
2024/01/04 15:24:06;;;;;;;2.20;1.70;;;10.20;99.90;;;;;;10488293;28;20224;-79
2024/01/04 15:29:09;;;;;;;2.30;1.40;;;10.10;99.90;;;;;;10501073;28;20242;-80
2024/01/04 15:34:13;;;;;;;1.80;1.60;;;10.10;99.90;;;;;;10502186;28;20201;-79
2024/01/04 15:39:17;;;;;;;1.70;1.60;;;9.90;99.90;;;;;;10495337;28;20216;-79
2024/01/04 15:44:19;;;;;;;1.80;1.70;;;9.90;99.90;;;;;;10488330;28;20758;-80
2024/01/04 15:49:23;;;;;;;3.47;2.07;;;9.80;99.90;;;;;;10500917;28;20201;-79
2024/01/04 15:54:25;;;;;;;2.80;2.10;;;9.70;99.90;;;;;;10481706;28;20195;-79
2024/01/04 15:59:28;;;;;;;3.20;2.90;;;9.70;99.90;;;;;;10501047;28;20208;-80
2024/01/04 16:04:31;;;;;;;2.37;2.07;;;9.60;99.90;;;;;;10502454;28;20277;-80
2024/01/04 16:09:34;;;;;;;5.87;2.33;;;9.50;99.90;;;;;;10488646;28;20216;-80
2024/01/04 16:14:36;;;;;;;2.50;1.77;;;9.40;99.90;;;;;;10494474;28;20205;-79
2024/01/04 16:19:40;;;;;;;2.80;2.57;;;9.20;99.90;;;;;;10498120;28;20217;-79
2024/01/04 16:24:42;;;;;;;5.47;2.67;;;9.00;99.90;;;;;;10497835;28;20212;-79
2024/01/04 16:29:45;;;;;;;2.50;2.30;;;8.90;99.90;;;;;;10496100;28;20262;-79
2024/01/04 16:34:49;;;;;;;2.83;2.53;;;8.80;99.90;;;;;;10497600;28;20189;-79
2024/01/04 16:39:52;;;;;;;6.17;2.77;;;8.70;99.90;;;;;;10493793;28;20216;-80
2024/01/04 16:44:55;;;;;;;3.53;2.90;;;8.50;99.90;;;;;;10481261;28;20201;-79
2024/01/04 16:49:59;;;;;;;2.90;2.30;;;8.40;99.90;;;;;;10496167;28;20223;-80
2024/01/04 16:55:01;;;;;;;4.30;3.17;;;8.30;99.90;;;;;;10486474;28;20228;-77
2024/01/04 17:00:04;;;;;;;5.87;2.80;;;8.20;99.90;;;;;;10478655;28;20319;-78
2024/01/04 17:05:09;;;;;;;5.07;2.60;;;8.20;99.90;;;;;;10492679;28;20232;-77
2024/01/04 17:10:12;;;;;;;5.57;3.23;;;8.10;99.90;;;;;;10495381;28;20266;-77
2024/01/04 17:15:14;;;;;;;5.93;2.57;;;8.20;99.90;;;;;;10485803;28;20591;-77
2024/01/04 17:20:18;;;;;;;3.10;2.53;;;8.30;99.90;;;;;;10492341;28;20285;-77
2024/01/04 17:25:21;;;;;;;4.00;2.60;;;8.50;99.90;;;;;;10470289;28;20189;-78
2024/01/04 17:30:25;;;;;;;4.47;4.27;;;8.60;99.90;;;;;;10492749;28;20228;-77
2024/01/04 17:35:30;;;;;;;1.93;1.93;;;8.80;99.90;;;;;;10485395;28;20196;-78
2024/01/04 17:40:32;;;;;;;1.30;1.30;;;9.00;99.90;;;;;;10484201;28;20224;-78
2024/01/04 17:45:34;;;;;;;1.67;1.67;;;9.10;99.90;;;;;;10485410;28;20189;-76
2024/01/04 17:50:38;;;;;;;1.57;1.57;;;9.20;99.90;;;;;;10479368;28;20732;-76
2024/01/04 17:55:41;;;;;;;1.00;1.00;;;9.30;99.90;;;;;;10483511;28;20204;-76
2024/01/04 18:00:43;;;;;;;1.10;1.10;;;9.30;99.90;;;;;;10478348;28;20258;-77
2024/01/04 18:05:47;;;;;;;0.90;0.90;;;9.40;99.90;;;;;;10487340;28;20195;-77
2024/01/04 18:10:49;;;;;;;1.00;1.00;;;9.40;99.90;;;;;;10502412;28;20689;-77
2024/01/04 18:15:52;;;;;;;0.90;0.90;;;9.50;99.90;;;;;;10498362;28;20747;-76
2024/01/04 18:20:56;;;;;;;0.90;0.90;;;9.40;99.90;;;;;;10485105;28;20339;-77
2024/01/04 18:25:58;;;;;;;1.00;1.00;;;9.40;99.90;;;;;;10463827;28;20627;-76
2024/01/04 18:31:00;;;;;;;1.57;1.57;;;9.30;99.90;;;;;;10482975;28;20221;-76
2024/01/04 18:36:04;;;;;;;0.90;0.90;;;9.30;99.90;;;;;;10463251;28;20192;-76
2024/01/04 18:41:07;;;;;;;0.83;0.83;;;9.20;99.90;;;;;;10496398;28;20228;-76
2024/01/04 18:46:09;;;;;;;0.90;0.90;;;9.10;99.90;;;;;;10495166;28;20220;-76
2024/01/04 18:51:13;;;;;;;1.00;1.00;;;9.10;99.90;;;;;;10486970;28;20239;-76
2024/01/04 18:56:16;;;;;;;1.13;1.13;;;9.10;99.90;;;;;;10465393;28;20677;-77
2024/01/04 19:01:19;;;;;;;1.20;1.20;;;9.10;99.90;;;;;;10488566;28;20791;-76
2024/01/04 19:06:23;;;;;;;1.10;1.10;;;9.00;99.90;;;;;;10497849;28;20216;-77
2024/01/04 19:11:25;;;;;;;1.37;1.37;;;9.00;99.90;;;;;;10516217;28;20328;-78
2024/01/04 19:16:27;;;;;;;1.33;1.33;;;8.90;99.90;;;;;;10513259;28;20196;-77
2024/01/04 19:21:31;;;;;;;0.70;0.70;;;8.80;99.90;;;;;;10505944;28;20224;-78
2024/01/04 19:26:33;;;;;;;0.80;0.80;;;8.70;99.90;;;;;;10485041;28;20740;-77
2024/01/04 19:31:36;;;;;;;0.70;0.70;;;8.70;99.90;;;;;;10497513;28;20223;-77
2024/01/04 19:36:42;;;;;;;0.70;0.70;;;8.70;99.90;;;;;;10511521;28;20196;-78
2024/01/04 19:41:45;;;;;;;0.60;0.60;;;8.70;99.90;;;;;;10490624;28;20292;-78
2024/01/04 19:46:47;;;;;;;0.80;0.80;;;8.70;99.90;;;;;;10468249;28;20213;-76
2024/01/04 19:51:51;;;;;;;1.00;1.00;;;8.70;99.90;;;;;;10488457;28;20800;-76
2024/01/04 19:56:53;;;;;;;0.90;0.90;;;8.60;99.90;;;;;;10492304;28;20204;-77
2024/01/04 20:01:55;;;;;;;0.80;0.80;;;8.50;99.90;;;;;;10507930;28;20224;-77
2024/01/04 20:07:00;;;;;;;0.80;0.80;;;8.50;99.90;;;;;;10491504;28;20266;-77
2024/01/04 20:12:03;;;;;;;1.20;1.20;;;8.50;99.90;;;;;;10485864;28;20263;-76
2024/01/04 20:17:05;;;;;;;0.90;0.90;;;8.40;99.90;;;;;;10481202;28;20194;-77
2024/01/04 20:22:11;;;;;;;0.90;0.90;;;8.30;99.90;;;;;;10488979;28;20729;-77
2024/01/04 20:27:14;;;;;;;0.93;0.93;;;8.30;99.90;;;;;;10484982;28;20204;-77
2024/01/04 20:32:17;;;;;;;0.90;0.90;;;8.40;99.90;;;;;;10498152;28;20238;-77
2024/01/04 20:37:20;;;;;;;0.90;0.90;;;8.40;99.90;;;;;;10488004;28;20643;-76
2024/01/04 20:42:23;;;;;;;1.00;1.00;;;8.40;99.90;;;;;;10493833;28;20220;-76
2024/01/04 20:47:26;;;;;;;0.87;0.87;;;8.50;99.90;;;;;;10475222;28;20204;-75
2024/01/04 20:52:30;;;;;;;0.87;0.87;;;8.50;99.90;;;;;;10491311;28;20215;-78
2024/01/04 20:57:33;;;;;;;0.90;0.90;;;8.60;99.90;;;;;;10483072;28;20265;-78
2024/01/04 21:02:35;;;;;;;0.80;0.80;;;8.60;99.90;;;;;;10509660;28;20220;-76
2024/01/04 21:07:39;;;;;;;0.90;0.90;;;8.70;99.90;;;;;;10486501;28;21022;-77
2024/01/04 21:12:42;;;;;;;1.20;1.20;;;8.70;99.90;;;;;;10450201;28;20634;-78
2024/01/04 21:17:44;;;;;;;1.50;1.50;;;8.80;99.90;;;;;;10470845;28;20250;-77
2024/01/04 21:22:48;;;;;;;1.63;1.63;;;8.80;99.90;;;;;;10477522;28;20301;-79
2024/01/04 21:27:50;;;;;;;0.80;0.80;;;8.80;99.90;;;;;;10491551;28;20200;-75
2024/01/04 21:32:53;;;;;;;0.60;0.60;;;8.80;99.90;;;;;;10498459;28;20228;-78
2024/01/04 21:37:57;;;;;;;0.80;0.80;;;8.80;99.90;;;;;;10500923;28;20200;-75
2024/01/04 21:42:59;;;;;;;0.70;0.70;;;8.70;99.90;;;;;;10490856;28;20274;-79
2024/01/04 21:48:01;;;;;;;0.80;0.80;;;8.70;99.90;;;;;;10500103;28;20220;-79
2024/01/04 21:53:05;;;;;;;1.00;1.00;;;8.60;99.90;;;;;;10505013;28;20235;-78
2024/01/04 21:58:08;;;;;;;1.07;1.07;;;8.50;99.90;;;;;;10491634;28;20215;-77
2024/01/04 22:03:10;;;;;;;1.03;1.03;;;8.40;99.90;;;;;;10484509;28;20221;-77
2024/01/04 22:08:14;;;;;;;0.80;0.80;;;8.30;99.90;;;;;;10472246;28;20258;-76
2024/01/04 22:13:17;;;;;;;0.67;0.67;;;8.20;99.90;;;;;;10485884;28;20216;-75
2024/01/04 22:18:19;;;;;;;0.60;0.60;;;8.10;99.90;;;;;;10485603;28;20208;-76
2024/01/04 22:23:23;;;;;;;0.80;0.80;;;8.10;99.90;;;;;;10486092;28;20240;-77
2024/01/04 22:28:25;;;;;;;0.80;0.80;;;8.00;99.90;;;;;;10490417;28;20594;-77
2024/01/04 22:33:28;;;;;;;1.00;1.00;;;8.10;99.90;;;;;;10505254;28;20236;-77
2024/01/04 22:38:31;;;;;;;0.70;0.70;;;8.10;99.90;;;;;;10487550;28;20207;-77
2024/01/04 22:43:34;;;;;;;1.37;1.37;;;8.20;99.90;;;;;;10486960;28;20944;-77
2024/01/04 22:48:36;;;;;;;1.53;1.53;;;8.30;99.90;;;;;;10485682;28;20189;-77
2024/01/04 22:53:40;;;;;;;0.80;0.80;;;8.30;99.90;;;;;;10485655;28;20756;-77
2024/01/04 22:58:42;;;;;;;0.70;0.70;;;8.40;99.90;;;;;;10492603;28;20189;-77
2024/01/04 23:03:45;;;;;;;0.70;0.70;;;8.50;99.90;;;;;;10504829;28;20732;-76
2024/01/04 23:08:49;;;;;;;0.70;0.70;;;8.60;99.90;;;;;;10499513;28;20208;-76
2024/01/04 23:13:52;;;;;;;0.60;0.60;;;8.60;99.90;;;;;;10492399;28;20297;-77
2024/01/04 23:18:54;;;;;;;0.70;0.70;;;8.70;99.90;;;;;;10491207;28;20668;-76
2024/01/04 23:23:58;;;;;;;0.70;0.70;;;8.70;99.90;;;;;;10507852;28;20624;-77
2024/01/04 23:29:00;;;;;;;0.57;0.57;;;8.80;99.90;;;;;;10489193;28;20250;-76
2024/01/04 23:34:03;;;;;;;0.70;0.70;;;8.80;99.90;;;;;;10508173;28;20204;-77
2024/01/04 23:39:06;;;;;;;1.20;1.20;;;8.80;99.90;;;;;;10513150;28;20653;-77
2024/01/04 23:44:09;;;;;;;0.63;0.63;;;8.80;99.90;;;;;;10521970;28;20224;-77
2024/01/04 23:49:11;;;;;;;1.13;1.13;;;8.80;99.90;;;;;;10532945;28;20219;-76
2024/01/04 23:54:16;;;;;;;0.80;0.80;;;8.80;99.90;;;;;;10534263;28;20208;-77
2024/01/04 23:59:18;;;;;;;0.60;0.60;;;8.80;99.90;;;;;;10534259;28;20637;-75
